Time;durP1;ratioP1;P1;durP2;ratioP2;P2;SDS_P1;SDS_P2;PMS_P1;PMS_P2;Temp;Humidity;BMP_temperature;BMP_pressure;BME280_temperature;BME280_humidity;BME280_pressure;Samples;Min_cycle;Max_cycle;Signal;HPM_P1;HPM_P2
2023/04/21 00:01:49;;;;;;;8.03;7.10;;;13.70;99.90;;;;;;5136493;27;20909;-77
2023/04/21 00:04:16;;;;;;;10.35;6.97;;;13.60;99.90;;;;;;5115770;27;20472;-77
2023/04/21 00:06:44;;;;;;;5.83;5.27;;;13.70;99.90;;;;;;5115829;28;20238;-77
2023/04/21 00:09:11;;;;;;;9.47;7.20;;;13.70;99.90;;;;;;5114509;28;20484;-77
2023/04/21 00:11:40;;;;;;;12.67;6.80;;;13.70;99.90;;;;;;5116031;28;20468;-77
2023/04/21 00:14:06;;;;;;;8.63;6.30;;;13.70;99.90;;;;;;5098805;28;20466;-78
2023/04/21 00:16:33;;;;;;;6.90;6.30;;;13.70;99.90;;;;;;5095544;28;20657;-78
2023/04/21 00:19:01;;;;;;;8.18;7.28;;;13.70;99.90;;;;;;5094646;28;20469;-77
2023/04/21 00:21:28;;;;;;;6.03;5.53;;;13.70;99.90;;;;;;5107573;28;20556;-77
2023/04/21 00:23:55;;;;;;;8.37;6.37;;;13.70;99.90;;;;;;5095983;28;20576;-76
2023/04/21 00:26:23;;;;;;;6.88;6.15;;;13.70;99.90;;;;;;5094598;28;20458;-77
2023/04/21 00:28:51;;;;;;;7.15;6.43;;;13.70;99.90;;;;;;5094730;28;20223;-76
2023/04/21 00:31:18;;;;;;;15.27;8.98;;;13.70;99.90;;;;;;5093825;28;20257;-76
2023/04/21 00:33:45;;;;;;;11.20;7.43;;;13.70;99.90;;;;;;5094259;28;20227;-78
2023/04/21 00:36:12;;;;;;;8.10;7.30;;;13.60;99.90;;;;;;5083308;28;20473;-78
2023/04/21 00:38:39;;;;;;;14.87;8.13;;;13.60;99.90;;;;;;5109097;28;20476;-77
2023/04/21 00:41:06;;;;;;;8.00;6.53;;;13.60;99.90;;;;;;5114409;28;20460;-78
2023/04/21 00:43:33;;;;;;;10.80;7.43;;;13.60;99.90;;;;;;5104146;28;20461;-77
2023/04/21 00:46:02;;;;;;;14.07;7.90;;;13.50;99.90;;;;;;5095344;28;20461;-77
2023/04/21 00:48:29;;;;;;;12.18;6.85;;;13.50;99.90;;;;;;5088444;28;20475;-77
2023/04/21 00:50:56;;;;;;;12.05;8.10;;;13.50;99.90;;;;;;5133428;27;20271;-78
2023/04/21 00:53:23;;;;;;;8.43;7.55;;;13.50;99.90;;;;;;5135100;27;20484;-78
2023/04/21 00:55:53;;;;;;;8.47;6.97;;;13.50;99.90;;;;;;5110351;27;20227;-78
2023/04/21 00:58:22;;;;;;;7.20;6.23;;;13.40;99.90;;;;;;5111593;28;20480;-77
2023/04/21 01:00:49;;;;;;;12.60;8.05;;;13.40;99.90;;;;;;5094592;28;20493;-78
2023/04/21 01:03:17;;;;;;;8.47;7.40;;;13.40;99.90;;;;;;5104352;28;20234;-78
2023/04/21 01:05:45;;;;;;;12.43;8.50;;;13.30;99.90;;;;;;5114590;28;20472;-78
2023/04/21 01:08:15;;;;;;;12.15;8.48;;;13.30;99.90;;;;;;5114271;28;20775;-78
2023/04/21 01:10:42;;;;;;;10.73;8.37;;;13.30;99.90;;;;;;5119962;28;20264;-78
2023/04/21 01:13:09;;;;;;;10.98;8.15;;;13.30;99.90;;;;;;5101515;28;20470;-77
2023/04/21 01:15:36;;;;;;;12.52;8.98;;;13.20;99.90;;;;;;5128962;27;20245;-77
2023/04/21 01:18:04;;;;;;;10.38;8.23;;;13.20;99.90;;;;;;5110086;27;20227;-78
2023/04/21 01:20:32;;;;;;;10.68;8.35;;;13.10;99.90;;;;;;5097774;28;20215;-78
2023/04/21 01:23:01;;;;;;;11.77;9.05;;;13.10;99.90;;;;;;5114345;28;20246;-77
2023/04/21 01:25:28;;;;;;;10.45;9.25;;;13.10;99.90;;;;;;5113840;28;20292;-76
2023/04/21 01:27:56;;;;;;;11.30;8.40;;;13.10;99.90;;;;;;5113938;28;20356;-76
2023/04/21 01:30:23;;;;;;;11.25;9.73;;;13.10;99.90;;;;;;5115161;28;20314;-75
2023/04/21 01:32:50;;;;;;;10.70;8.70;;;13.10;99.90;;;;;;5115342;28;20690;-76
2023/04/21 01:35:17;;;;;;;10.85;9.25;;;13.10;99.90;;;;;;5114019;28;20226;-76
2023/04/21 01:37:44;;;;;;;10.27;9.10;;;13.00;99.90;;;;;;5115150;28;20291;-76
2023/04/21 01:40:16;;;;;;;11.25;9.23;;;13.00;99.90;;;;;;5114278;28;20301;-77
2023/04/21 01:42:43;;;;;;;9.40;8.40;;;13.10;99.90;;;;;;5114879;28;20249;-77
2023/04/21 01:45:11;;;;;;;12.82;8.93;;;13.00;99.90;;;;;;5114965;28;20226;-77
2023/04/21 01:47:38;;;;;;;11.75;9.35;;;13.00;99.90;;;;;;5105437;28;20218;-76
2023/04/21 01:50:06;;;;;;;12.15;9.48;;;13.00;99.90;;;;;;5114698;28;20296;-76
2023/04/21 01:52:33;;;;;;;14.77;10.15;;;13.00;99.90;;;;;;5114296;28;20279;-75
2023/04/21 01:55:01;;;;;;;10.52;9.43;;;12.90;99.90;;;;;;5114402;28;20227;-76
2023/04/21 01:57:30;;;;;;;13.70;9.82;;;13.00;99.90;;;;;;5113933;28;20222;-76
2023/04/21 01:59:59;;;;;;;11.65;10.65;;;12.90;99.90;;;;;;5114012;28;20234;-76
2023/04/21 02:02:26;;;;;;;13.05;10.13;;;12.90;99.90;;;;;;5113914;28;20311;-76
2023/04/21 02:04:53;;;;;;;10.43;8.52;;;12.90;99.90;;;;;;5114425;28;20227;-76
2023/04/21 02:07:22;;;;;;;10.75;9.30;;;12.90;99.90;;;;;;5111756;28;20219;-77
2023/04/21 02:09:49;;;;;;;10.25;9.15;;;12.90;99.90;;;;;;5113132;28;20219;-77
2023/04/21 02:12:17;;;;;;;11.80;10.63;;;12.90;99.90;;;;;;5113498;28;20290;-77
2023/04/21 02:14:48;;;;;;;10.63;9.60;;;12.90;99.90;;;;;;5112964;28;20304;-77
2023/04/21 02:17:15;;;;;;;13.50;10.48;;;12.90;99.90;;;;;;5113822;28;20252;-78
2023/04/21 02:19:42;;;;;;;10.57;9.45;;;12.90;99.90;;;;;;5113862;28;20524;-77
2023/04/21 02:22:11;;;;;;;11.95;9.88;;;12.80;99.90;;;;;;5112926;28;20680;-77
2023/04/21 02:24:38;;;;;;;11.55;9.30;;;12.80;99.90;;;;;;5113130;28;20223;-77
2023/04/21 02:27:06;;;;;;;11.30;10.10;;;12.70;99.90;;;;;;5113678;28;20313;-78
2023/04/21 02:29:33;;;;;;;11.15;10.05;;;12.70;99.90;;;;;;5113503;28;20275;-77
2023/04/21 02:32:01;;;;;;;13.93;10.70;;;12.70;99.90;;;;;;5113937;28;20327;-77
2023/04/21 02:34:28;;;;;;;11.27;10.15;;;12.70;99.90;;;;;;5112224;28;20276;-77
2023/04/21 02:36:56;;;;;;;11.02;10.02;;;12.70;99.90;;;;;;5109453;28;20226;-77
2023/04/21 02:39:24;;;;;;;11.02;9.82;;;12.70;99.90;;;;;;5113831;28;20227;-76
2023/04/21 02:41:51;;;;;;;12.93;9.75;;;12.70;99.90;;;;;;5112991;28;20250;-75
2023/04/21 02:44:18;;;;;;;12.07;10.88;;;12.70;99.90;;;;;;5112915;28;20233;-76
2023/04/21 02:46:45;;;;;;;16.58;10.00;;;12.70;99.90;;;;;;5104862;28;20226;-77
2023/04/21 02:49:13;;;;;;;13.48;10.73;;;12.60;99.90;;;;;;5113932;28;20223;-78
2023/04/21 02:51:42;;;;;;;11.88;10.18;;;12.60;99.90;;;;;;5113337;28;20250;-78
2023/04/21 02:54:09;;;;;;;13.88;11.35;;;12.50;99.90;;;;;;5114409;28;20596;-78
2023/04/21 02:56:36;;;;;;;12.48;11.20;;;12.50;99.90;;;;;;5113104;28;20227;-78
2023/04/21 02:59:03;;;;;;;12.50;11.18;;;12.50;99.90;;;;;;5113460;28;20219;-78
2023/04/21 03:01:30;;;;;;;12.77;10.55;;;12.50;99.90;;;;;;5113669;28;20571;-77
2023/04/21 03:03:57;;;;;;;10.85;9.75;;;12.50;99.90;;;;;;5113162;28;20275;-77
2023/04/21 03:06:33;;;;;;;10.95;9.60;;;12.50;99.90;;;;;;5113379;28;20287;-77
2023/04/21 03:09:00;;;;;;;11.15;10.13;;;12.50;99.90;;;;;;5084716;28;20234;-75
2023/04/21 03:11:27;;;;;;;13.00;10.77;;;12.50;99.90;;;;;;5112554;28;20214;-76
2023/04/21 03:13:54;;;;;;;11.95;9.55;;;12.50;99.90;;;;;;5113062;28;20226;-77
2023/04/21 03:16:21;;;;;;;12.70;11.00;;;12.50;99.90;;;;;;5113616;28;20234;-76
2023/04/21 03:18:48;;;;;;;12.20;10.80;;;12.50;99.90;;;;;;5115392;28;20664;-77
2023/04/21 03:21:15;;;;;;;11.35;10.25;;;12.50;99.90;;;;;;5113577;28;20237;-77
2023/04/21 03:23:46;;;;;;;14.43;11.48;;;12.50;99.90;;;;;;5113441;28;20230;-78
2023/04/21 03:26:17;;;;;;;12.80;10.95;;;12.50;99.90;;;;;;5113458;28;20227;-76
2023/04/21 03:28:44;;;;;;;11.63;10.63;;;12.50;99.90;;;;;;5113349;28;20230;-77
2023/04/21 03:31:10;;;;;;;13.43;12.10;;;12.50;99.90;;;;;;5112882;28;20545;-77
2023/04/21 03:33:38;;;;;;;14.93;11.50;;;12.40;99.90;;;;;;5117078;28;20627;-77
2023/04/21 03:36:06;;;;;;;10.95;9.95;;;12.40;99.90;;;;;;5117610;28;20234;-76
2023/04/21 03:38:33;;;;;;;11.93;10.73;;;12.40;99.90;;;;;;5117929;28;20241;-77
2023/04/21 03:41:03;;;;;;;11.35;10.35;;;12.40;99.90;;;;;;5117448;28;20303;-76
2023/04/21 03:43:30;;;;;;;11.75;10.55;;;12.40;99.90;;;;;;5117579;28;20684;-78
2023/04/21 03:45:57;;;;;;;14.27;11.45;;;12.40;99.90;;;;;;5116176;28;20295;-78
2023/04/21 03:48:24;;;;;;;13.57;10.70;;;12.40;99.90;;;;;;5117782;28;20283;-78
2023/04/21 03:50:53;;;;;;;13.95;11.00;;;12.40;99.90;;;;;;5118525;28;20295;-78
2023/04/21 03:53:20;;;;;;;13.25;11.55;;;12.30;99.90;;;;;;5116310;28;20233;-77
2023/04/21 03:55:47;;;;;;;12.05;11.02;;;12.30;99.90;;;;;;5117536;28;20230;-78
2023/04/21 03:58:16;;;;;;;11.82;10.70;;;12.30;99.90;;;;;;5117414;28;20677;-77
2023/04/21 04:00:43;;;;;;;13.18;11.98;;;12.30;99.90;;;;;;5116717;28;20271;-77
2023/04/21 04:03:10;;;;;;;12.18;9.95;;;12.30;99.90;;;;;;5117230;28;20222;-78
2023/04/21 04:05:37;;;;;;;11.90;10.43;;;12.30;99.90;;;;;;5116589;28;20237;-77
2023/04/21 04:08:05;;;;;;;17.85;12.13;;;12.30;99.90;;;;;;5116162;28;20222;-77
2023/04/21 04:10:32;;;;;;;12.95;11.80;;;12.30;99.90;;;;;;5116932;28;20215;-77
2023/04/21 04:13:00;;;;;;;12.25;11.07;;;12.20;99.90;;;;;;5116647;28;20211;-78
2023/04/21 04:15:29;;;;;;;11.73;10.35;;;12.20;99.90;;;;;;5116752;28;20317;-78
2023/04/21 04:17:56;;;;;;;12.75;11.55;;;12.10;99.90;;;;;;5117519;28;20219;-78
2023/04/21 04:20:24;;;;;;;14.73;11.55;;;12.20;99.90;;;;;;5116950;28;20219;-77
2023/04/21 04:22:52;;;;;;;13.13;11.73;;;12.10;99.90;;;;;;5119212;28;20503;-77
2023/04/21 04:25:20;;;;;;;13.32;12.00;;;12.20;99.90;;;;;;5117516;28;20253;-76
2023/04/21 04:27:49;;;;;;;17.90;12.10;;;12.20;99.90;;;;;;5116882;28;20297;-77
2023/04/21 04:30:16;;;;;;;13.70;12.25;;;12.20;99.90;;;;;;5116804;28;20229;-78
2023/04/21 04:32:45;;;;;;;13.25;11.85;;;12.20;99.90;;;;;;5117130;28;20372;-77
2023/04/21 04:35:13;;;;;;;12.45;11.20;;;12.20;99.90;;;;;;5115478;28;20227;-77
2023/04/21 04:37:41;;;;;;;12.75;11.65;;;12.20;99.90;;;;;;5116911;28;20648;-77
2023/04/21 04:40:11;;;;;;;13.65;12.25;;;12.20;99.90;;;;;;5117750;28;20309;-77
2023/04/21 04:42:38;;;;;;;16.67;14.90;;;12.20;99.90;;;;;;5117543;28;20279;-77
2023/04/21 04:45:07;;;;;;;13.20;11.85;;;12.20;99.90;;;;;;5114937;28;20231;-77
2023/04/21 04:47:34;;;;;;;14.75;12.18;;;12.20;99.90;;;;;;5116960;28;20214;-77
2023/04/21 04:50:02;;;;;;;14.80;13.23;;;12.10;99.90;;;;;;5117078;28;20369;-77
2023/04/21 04:52:29;;;;;;;12.35;11.15;;;12.10;99.90;;;;;;5116798;28;20297;-77
2023/04/21 04:54:56;;;;;;;12.23;11.07;;;12.10;99.90;;;;;;5116657;28;20226;-77
2023/04/21 04:57:23;;;;;;;12.88;11.43;;;12.00;99.90;;;;;;5115714;28;20279;-77
2023/04/21 04:59:55;;;;;;;13.10;11.80;;;12.10;99.90;;;;;;5116294;28;20215;-76
2023/04/21 05:02:23;;;;;;;13.18;11.55;;;12.10;99.90;;;;;;5115739;28;20223;-76
2023/04/21 05:04:50;;;;;;;11.63;10.25;;;12.10;99.90;;;;;;5115832;28;20321;-75
2023/04/21 05:07:18;;;;;;;12.88;11.73;;;12.10;99.90;;;;;;5115563;28;20588;-76
2023/04/21 05:09:46;;;;;;;12.35;11.07;;;12.20;99.90;;;;;;5115789;28;20276;-76
2023/04/21 05:12:13;;;;;;;13.88;12.43;;;12.20;99.90;;;;;;5114947;28;20226;-77
2023/04/21 05:14:41;;;;;;;13.32;12.02;;;12.20;99.90;;;;;;5115845;28;20222;-77
2023/04/21 05:17:08;;;;;;;14.20;11.50;;;12.20;99.90;;;;;;5116068;28;20562;-76
2023/04/21 05:19:36;;;;;;;13.15;11.88;;;12.20;99.90;;;;;;5116511;28;20223;-77
2023/04/21 05:22:05;;;;;;;14.35;12.88;;;12.20;99.90;;;;;;5116736;28;20219;-77
2023/04/21 05:24:41;;;;;;;13.25;11.90;;;12.20;99.90;;;;;;5115259;28;20278;-76
2023/04/21 05:27:08;;;;;;;13.32;11.77;;;12.20;99.90;;;;;;5115667;28;20314;-76
2023/04/21 05:29:35;;;;;;;12.38;11.20;;;12.20;99.90;;;;;;5115492;28;20222;-77
2023/04/21 05:32:03;;;;;;;18.80;12.85;;;12.20;99.90;;;;;;5115407;28;20680;-77
2023/04/21 05:34:30;;;;;;;14.85;13.20;;;12.20;99.90;;;;;;5115504;28;20227;-76
2023/04/21 05:36:58;;;;;;;15.32;13.73;;;12.20;99.90;;;;;;5118818;28;20248;-77
2023/04/21 05:39:30;;;;;;;16.55;12.90;;;12.20;99.90;;;;;;5117513;28;20684;-77
2023/04/21 05:42:01;;;;;;;12.18;10.95;;;12.30;99.90;;;;;;5118081;28;20242;-77
2023/04/21 05:44:30;;;;;;;12.90;11.25;;;12.30;99.90;;;;;;5118975;28;20234;-77
2023/04/21 05:46:59;;;;;;;12.70;11.40;;;12.30;99.90;;;;;;5119044;28;20672;-77
2023/04/21 05:49:27;;;;;;;12.30;10.88;;;12.30;99.90;;;;;;5115857;28;20291;-77
2023/04/21 05:51:56;;;;;;;13.70;12.40;;;12.40;99.90;;;;;;5115873;28;20223;-77
2023/04/21 05:54:23;;;;;;;12.48;11.23;;;12.40;99.90;;;;;;5115025;28;20543;-77
2023/04/21 05:56:50;;;;;;;13.20;11.93;;;12.50;99.90;;;;;;5114491;28;20687;-76
2023/04/21 05:59:18;;;;;;;16.30;11.13;;;12.60;99.90;;;;;;5114533;28;20224;-77
2023/04/21 06:01:45;;;;;;;12.98;11.10;;;12.60;99.90;;;;;;5115744;28;20238;-76
2023/04/21 06:04:12;;;;;;;12.63;11.48;;;12.70;99.90;;;;;;5115732;28;20233;-77
2023/04/21 06:06:40;;;;;;;12.63;11.32;;;12.70;99.90;;;;;;5115507;28;20227;-76
2023/04/21 06:09:07;;;;;;;13.98;11.18;;;12.80;99.90;;;;;;5115530;28;20222;-75
2023/04/21 06:11:34;;;;;;;12.98;11.85;;;12.80;99.90;;;;;;5115699;28;20226;-77
2023/04/21 06:14:01;;;;;;;13.10;11.80;;;12.80;99.90;;;;;;5115887;28;20214;-77
2023/04/21 06:16:32;;;;;;;13.30;11.90;;;12.90;99.90;;;;;;5087582;22;20301;-76
2023/04/21 06:18:59;;;;;;;14.45;11.50;;;13.00;99.90;;;;;;5057355;28;20236;-76
2023/04/21 06:21:27;;;;;;;18.23;12.90;;;13.10;99.90;;;;;;5057935;28;20254;-76
2023/04/21 06:23:54;;;;;;;15.02;11.82;;;13.10;99.90;;;;;;5057917;28;20593;-77
2023/04/21 06:26:21;;;;;;;13.07;11.70;;;13.10;99.90;;;;;;5075293;28;20228;-77
2023/04/21 06:28:51;;;;;;;11.87;10.67;;;13.20;99.90;;;;;;5081185;28;20224;-77
2023/04/21 06:31:18;;;;;;;12.40;11.15;;;13.30;99.90;;;;;;5081962;28;20478;-77
2023/04/21 06:33:46;;;;;;;13.50;11.60;;;13.40;99.90;;;;;;5075302;28;20580;-78
2023/04/21 06:36:14;;;;;;;11.73;10.63;;;13.50;99.90;;;;;;5082219;28;20527;-77
2023/04/21 06:38:42;;;;;;;14.13;11.73;;;13.50;99.90;;;;;;5079357;28;20458;-76
2023/04/21 06:41:18;;;;;;;11.67;10.57;;;13.60;99.90;;;;;;5079329;28;20223;-77
2023/04/21 06:43:46;;;;;;;14.67;12.30;;;13.60;99.90;;;;;;5081407;28;20549;-77
2023/04/21 06:46:13;;;;;;;10.73;9.73;;;13.70;99.90;;;;;;5080056;28;20467;-75
2023/04/21 06:48:41;;;;;;;11.13;10.03;;;13.80;99.90;;;;;;5077523;28;20462;-77
2023/04/21 06:51:09;;;;;;;14.30;11.73;;;13.90;99.90;;;;;;5083788;28;20478;-78
2023/04/21 06:53:37;;;;;;;13.83;11.37;;;14.00;99.90;;;;;;5085651;28;20477;-78
2023/04/21 06:56:04;;;;;;;12.03;10.83;;;14.00;99.90;;;;;;5085168;28;20533;-78
2023/04/21 06:58:31;;;;;;;12.43;11.10;;;14.10;99.90;;;;;;5082983;28;20471;-78
2023/04/21 07:00:59;;;;;;;13.40;12.00;;;14.20;99.90;;;;;;5083150;28;20458;-78
2023/04/21 07:03:26;;;;;;;14.30;12.30;;;14.30;99.90;;;;;;5081280;28;20466;-77
2023/04/21 07:05:55;;;;;;;12.43;11.10;;;14.30;99.90;;;;;;5079949;28;20465;-77
2023/04/21 07:08:25;;;;;;;17.63;12.50;;;14.30;99.90;;;;;;5083833;28;20481;-77
2023/04/21 07:10:52;;;;;;;15.87;11.90;;;14.40;99.90;;;;;;5083282;28;20484;-77
2023/04/21 07:13:19;;;;;;;12.30;11.20;;;14.50;99.90;;;;;;5077424;28;20477;-78
2023/04/21 07:16:07;;;;;;;12.63;11.30;;;14.60;99.90;;;;;;5048143;28;20473;-77
2023/04/21 07:18:34;;;;;;;12.23;10.53;;;14.70;99.90;;;;;;5056247;28;20545;-77
2023/04/21 07:21:01;;;;;;;13.30;11.50;;;14.90;99.90;;;;;;5075025;28;20493;-78
2023/04/21 07:23:30;;;;;;;22.30;15.00;;;15.00;99.90;;;;;;5075353;28;20454;-77
2023/04/21 07:25:57;;;;;;;14.60;11.47;;;15.00;99.90;;;;;;5074405;28;20819;-77
2023/04/21 07:28:24;;;;;;;12.63;11.43;;;15.10;99.90;;;;;;5074776;28;20527;-77
2023/04/21 07:30:51;;;;;;;13.53;12.13;;;15.20;99.90;;;;;;5073077;28;20572;-77
2023/04/21 07:33:18;;;;;;;12.57;11.20;;;15.20;99.90;;;;;;5074083;28;20512;-77
2023/04/21 07:35:45;;;;;;;12.60;10.10;;;15.30;99.90;;;;;;5072041;28;20774;-77
2023/04/21 07:38:13;;;;;;;11.90;10.73;;;15.40;99.90;;;;;;5073473;28;20854;-78
2023/04/21 07:40:44;;;;;;;11.00;10.03;;;15.50;99.90;;;;;;5073462;28;20470;-77
2023/04/21 07:43:11;;;;;;;14.53;12.80;;;15.50;99.90;;;;;;5064975;28;20474;-77
2023/04/21 07:45:38;;;;;;;11.40;10.07;;;15.60;99.90;;;;;;5073257;28;20470;-76
2023/04/21 07:48:08;;;;;;;12.37;11.27;;;15.70;99.90;;;;;;5073259;28;20565;-78
2023/04/21 07:50:35;;;;;;;13.93;11.40;;;15.70;99.90;;;;;;5073357;28;20500;-78
2023/04/21 07:53:02;;;;;;;12.20;11.00;;;15.80;99.90;;;;;;5072171;28;20481;-76
2023/04/21 07:55:32;;;;;;;11.20;10.20;;;15.90;99.90;;;;;;5072561;28;20481;-77
2023/04/21 07:58:02;;;;;;;12.20;10.97;;;16.00;99.90;;;;;;5072418;28;20948;-77
2023/04/21 08:00:31;;;;;;;14.17;10.93;;;16.10;99.90;;;;;;5072755;28;20865;-78
2023/04/21 08:06:32;;;;;;;13.83;11.77;;;16.30;99.60;;;;;;5074339;28;20471;-76
2023/04/21 08:08:59;;;;;;;12.57;11.27;;;16.40;99.20;;;;;;5073042;28;21478;-78
2023/04/21 08:11:27;;;;;;;12.50;10.47;;;16.50;99.10;;;;;;5073688;28;20458;-77
2023/04/21 08:13:58;;;;;;;14.27;10.80;;;16.60;99.10;;;;;;5071765;28;21022;-77
2023/04/21 08:16:25;;;;;;;12.13;10.50;;;16.60;98.60;;;;;;5072849;28;20500;-75
2023/04/21 08:18:53;;;;;;;13.10;11.43;;;16.70;98.50;;;;;;5073071;28;20462;-78
2023/04/21 08:21:20;;;;;;;13.43;11.23;;;16.70;98.30;;;;;;5067206;28;20531;-78
2023/04/21 08:23:46;;;;;;;11.90;10.10;;;16.80;98.10;;;;;;5075474;28;20793;-77
2023/04/21 08:26:14;;;;;;;12.57;9.93;;;16.80;97.40;;;;;;5075533;28;20458;-78
2023/04/21 08:28:41;;;;;;;10.97;9.90;;;16.90;97.60;;;;;;5076911;28;20587;-75
2023/04/21 08:31:11;;;;;;;12.30;10.83;;;17.00;97.30;;;;;;5075791;28;20904;-76
2023/04/21 08:33:41;;;;;;;11.23;10.10;;;17.00;97.10;;;;;;5065226;28;20481;-76
2023/04/21 08:36:08;;;;;;;10.73;9.73;;;17.00;97.00;;;;;;5075925;28;20509;-77
2023/04/21 08:38:36;;;;;;;12.07;10.83;;;17.10;96.90;;;;;;5075080;28;20469;-77
2023/04/21 08:41:04;;;;;;;13.50;10.53;;;17.10;96.90;;;;;;5075701;28;20808;-77
2023/04/21 08:43:31;;;;;;;11.57;10.47;;;17.10;96.10;;;;;;5075535;28;20811;-76
2023/04/21 08:46:00;;;;;;;11.03;9.93;;;17.20;96.60;;;;;;5073236;28;20540;-76
2023/04/21 08:48:31;;;;;;;12.30;9.53;;;17.30;96.00;;;;;;5076595;28;20458;-75
2023/04/21 08:51:02;;;;;;;9.87;8.90;;;17.30;96.00;;;;;;5075438;28;20543;-76
2023/04/21 08:53:29;;;;;;;11.90;10.70;;;17.30;95.50;;;;;;5075238;28;20474;-77
2023/04/21 08:55:57;;;;;;;11.50;9.37;;;17.40;95.70;;;;;;5074786;28;20992;-78
2023/04/21 08:58:24;;;;;;;10.20;9.40;;;17.40;95.30;;;;;;5075447;28;20463;-76
2023/04/21 09:00:53;;;;;;;10.63;9.53;;;17.50;95.20;;;;;;5075004;28;20470;-77
2023/04/21 09:03:27;;;;;;;10.73;9.70;;;17.50;95.10;;;;;;5074885;28;20863;-76
2023/04/21 09:06:07;;;;;;;12.77;10.70;;;17.60;95.10;;;;;;5074750;28;20986;-77
2023/04/21 09:08:36;;;;;;;10.07;8.90;;;17.60;94.70;;;;;;5076224;28;20849;-76
2023/04/21 09:11:04;;;;;;;11.47;10.27;;;17.70;94.70;;;;;;5064579;28;20946;-76
2023/04/21 09:13:33;;;;;;;11.27;10.13;;;17.80;94.90;;;;;;5077573;28;20478;-76
2023/04/21 09:16:02;;;;;;;10.30;9.40;;;17.70;94.40;;;;;;5077228;28;20532;-76
2023/04/21 09:18:34;;;;;;;10.30;9.40;;;17.80;94.60;;;;;;5077032;28;20474;-76
2023/04/21 09:21:23;;;;;;;11.40;10.17;;;17.80;94.00;;;;;;5066391;28;20470;-76
2023/04/21 09:23:52;;;;;;;15.07;10.20;;;17.90;93.80;;;;;;5060087;28;20837;-77
2023/04/21 09:26:21;;;;;;;10.70;9.70;;;17.80;93.40;;;;;;5076609;28;20466;-77
2023/04/21 09:28:49;;;;;;;10.67;9.63;;;17.90;93.50;;;;;;5075770;28;22568;-76
2023/04/21 09:31:19;;;;;;;14.87;9.30;;;17.90;93.80;;;;;;5077106;28;20543;-77
2023/04/21 09:33:47;;;;;;;10.77;9.67;;;18.00;94.20;;;;;;5076908;28;20477;-76
2023/04/21 09:36:23;;;;;;;9.83;9.03;;;18.00;93.70;;;;;;5077066;28;20470;-77
2023/04/21 09:38:56;;;;;;;10.77;8.60;;;18.10;93.60;;;;;;5075771;28;20470;-77
2023/04/21 09:41:24;;;;;;;9.30;8.43;;;18.10;93.70;;;;;;5075517;28;20466;-78
2023/04/21 09:43:51;;;;;;;13.30;9.33;;;18.20;93.70;;;;;;5074725;28;20462;-78
2023/04/21 09:46:19;;;;;;;9.90;8.90;;;18.20;93.70;;;;;;5074530;28;20478;-77
2023/04/21 09:48:47;;;;;;;10.00;9.10;;;18.30;92.20;;;;;;5074898;28;20467;-77
2023/04/21 09:51:16;;;;;;;10.67;9.50;;;18.30;91.80;;;;;;5075154;28;20987;-78
2023/04/21 09:53:45;;;;;;;9.97;8.63;;;18.40;91.40;;;;;;5074562;28;20524;-77
2023/04/21 09:56:14;;;;;;;10.50;9.70;;;18.40;91.40;;;;;;5074961;28;20512;-78
2023/04/21 09:58:44;;;;;;;11.07;10.07;;;18.50;91.30;;;;;;5074201;28;20470;-78
2023/04/21 10:01:14;;;;;;;9.57;8.57;;;18.50;91.10;;;;;;5074978;28;20470;-78
2023/04/21 10:03:44;;;;;;;10.00;9.10;;;18.50;90.50;;;;;;5073662;28;20470;-77
2023/04/21 10:06:12;;;;;;;10.47;9.43;;;18.60;90.70;;;;;;5075142;28;20477;-78
2023/04/21 10:08:39;;;;;;;9.50;8.70;;;18.60;91.00;;;;;;5074064;28;20471;-78
2023/04/21 10:11:08;;;;;;;9.80;8.33;;;18.70;91.00;;;;;;5073752;28;20466;-76
2023/04/21 10:14:24;;;;;;;10.03;8.53;;;18.70;91.50;;;;;;5074047;28;20566;-77
2023/04/21 10:16:57;;;;;;;9.67;8.77;;;18.70;90.50;;;;;;5045647;28;20501;-77
2023/04/21 10:19:25;;;;;;;9.37;8.43;;;18.80;88.40;;;;;;5073670;28;20482;-77
2023/04/21 10:21:52;;;;;;;8.03;7.27;;;18.80;86.90;;;;;;5074900;28;20459;-77
2023/04/21 10:24:19;;;;;;;11.87;8.17;;;18.80;86.20;;;;;;5073804;28;20470;-77
2023/04/21 10:26:55;;;;;;;10.37;8.03;;;18.80;85.70;;;;;;5074628;28;20462;-77
2023/04/21 10:29:30;;;;;;;13.03;7.97;;;18.90;85.20;;;;;;5075508;28;20535;-77
2023/04/21 10:31:57;;;;;;;10.53;8.00;;;18.90;85.80;;;;;;5077570;28;20489;-77
2023/04/21 10:34:34;;;;;;;9.63;8.67;;;19.00;85.00;;;;;;5077031;28;20462;-77
2023/04/21 10:37:17;;;;;;;9.50;8.50;;;19.00;84.40;;;;;;5075318;28;20470;-77
2023/04/21 10:39:55;;;;;;;8.70;7.90;;;19.00;84.70;;;;;;5075130;28;20602;-77
2023/04/21 10:42:30;;;;;;;9.00;8.10;;;19.10;84.50;;;;;;5074415;28;20476;-77
2023/04/21 10:45:11;;;;;;;8.20;7.50;;;19.10;82.60;;;;;;5074964;28;20454;-77
2023/04/21 10:47:41;;;;;;;8.07;7.37;;;19.20;81.80;;;;;;5073735;28;20501;-77
2023/04/21 10:50:21;;;;;;;10.20;9.03;;;19.30;82.30;;;;;;5074582;28;20492;-77
2023/04/21 10:52:54;;;;;;;9.30;7.73;;;19.20;82.10;;;;;;5072820;28;20830;-77
2023/04/21 10:55:22;;;;;;;9.97;8.47;;;19.30;82.20;;;;;;5069095;28;20953;-77
2023/04/21 10:57:50;;;;;;;10.47;7.77;;;19.30;81.40;;;;;;5075126;28;20447;-76
2023/04/21 11:00:21;;;;;;;9.97;7.83;;;19.40;81.80;;;;;;5077948;28;20562;-78
2023/04/21 11:02:57;;;;;;;10.00;7.70;;;19.50;81.80;;;;;;5074894;28;20474;-78
2023/04/21 11:05:34;;;;;;;10.50;7.00;;;19.50;81.30;;;;;;5075588;28;20472;-78
2023/04/21 11:08:13;;;;;;;10.07;8.10;;;19.50;80.20;;;;;;5093511;28;20480;-78
2023/04/21 11:10:49;;;;;;;8.50;7.70;;;19.50;78.80;;;;;;5091154;28;20487;-78
2023/04/21 11:13:18;;;;;;;7.73;6.93;;;19.50;78.60;;;;;;5090435;28;20556;-78
2023/04/21 11:16:01;;;;;;;12.10;8.57;;;19.60;77.90;;;;;;5069023;28;20466;-78
2023/04/21 11:18:40;;;;;;;11.97;7.87;;;19.60;78.20;;;;;;5070428;28;20482;-78
2023/04/21 11:21:12;;;;;;;8.40;7.40;;;19.70;78.40;;;;;;5082155;28;20490;-78
2023/04/21 11:23:47;;;;;;;8.00;7.20;;;19.70;77.40;;;;;;5068050;28;20446;-78
2023/04/21 11:26:15;;;;;;;8.23;7.40;;;19.70;77.70;;;;;;5073116;28;20539;-77
2023/04/21 11:28:43;;;;;;;8.73;7.83;;;19.70;78.20;;;;;;5073005;28;20462;-77
2023/04/21 11:31:10;;;;;;;8.33;7.37;;;19.70;78.10;;;;;;5073707;28;20462;-77
2023/04/21 11:33:39;;;;;;;8.10;7.40;;;19.70;78.20;;;;;;5072766;28;20547;-77
2023/04/21 11:36:06;;;;;;;10.77;7.17;;;19.80;76.90;;;;;;5073104;28;20492;-76
2023/04/21 11:38:41;;;;;;;8.47;7.67;;;19.80;77.30;;;;;;5073124;28;20769;-77
2023/04/21 11:41:09;;;;;;;8.70;7.73;;;19.90;77.10;;;;;;5071664;28;20766;-77
2023/04/21 11:43:42;;;;;;;10.63;8.40;;;19.90;77.00;;;;;;5073470;28;20470;-76
2023/04/21 11:46:17;;;;;;;9.87;7.70;;;19.90;76.40;;;;;;5072409;28;20474;-76
2023/04/21 11:48:45;;;;;;;8.93;7.80;;;20.00;77.40;;;;;;5073220;28;20466;-76
2023/04/21 11:51:17;;;;;;;8.53;7.67;;;19.90;74.50;;;;;;5075775;28;20477;-76
2023/04/21 11:53:47;;;;;;;7.70;7.10;;;19.90;74.70;;;;;;5074637;28;20457;-76
2023/04/21 11:56:18;;;;;;;9.60;8.53;;;20.00;73.40;;;;;;5065784;28;20993;-77
2023/04/21 11:58:46;;;;;;;7.80;7.00;;;20.00;72.50;;;;;;5069119;28;20470;-78
2023/04/21 12:01:15;;;;;;;8.40;7.37;;;20.00;71.40;;;;;;5078767;28;20502;-77
2023/04/21 12:03:43;;;;;;;7.60;6.93;;;20.10;70.50;;;;;;5071523;28;20479;-77
2023/04/21 12:06:10;;;;;;;7.83;6.90;;;20.10;67.60;;;;;;5076570;28;20462;-77
2023/04/21 12:08:37;;;;;;;8.90;7.20;;;20.10;68.80;;;;;;5076500;28;20819;-77
2023/04/21 12:11:04;;;;;;;9.03;8.23;;;20.10;70.30;;;;;;5076121;28;20485;-77
2023/04/21 12:13:31;;;;;;;8.23;7.10;;;20.10;70.00;;;;;;5080741;28;20470;-77
2023/04/21 12:16:02;;;;;;;8.23;7.50;;;20.20;69.90;;;;;;5068625;28;20474;-78
2023/04/21 12:18:34;;;;;;;7.63;6.93;;;20.20;71.10;;;;;;5076616;28;21006;-76
2023/04/21 12:21:02;;;;;;;8.10;7.50;;;20.30;70.00;;;;;;5071413;28;20481;-77
2023/04/21 12:23:29;;;;;;;8.20;6.63;;;20.30;68.80;;;;;;5035956;28;20495;-77
2023/04/21 12:25:57;;;;;;;7.93;7.23;;;20.30;65.20;;;;;;5042249;28;20917;-77
2023/04/21 12:28:24;;;;;;;8.40;7.70;;;20.40;65.70;;;;;;5069262;28;20480;-77
2023/04/21 12:30:51;;;;;;;7.63;6.93;;;20.30;66.20;;;;;;5066452;28;20556;-76
2023/04/21 12:33:18;;;;;;;12.00;7.57;;;20.40;67.00;;;;;;5063237;28;21395;-78
2023/04/21 12:35:47;;;;;;;9.10;8.30;;;20.40;67.30;;;;;;5075839;28;20512;-77
2023/04/21 12:38:13;;;;;;;8.87;6.67;;;20.40;68.70;;;;;;5039631;28;20499;-78
2023/04/21 12:40:40;;;;;;;7.20;6.53;;;20.40;69.20;;;;;;5037883;28;20534;-77
2023/04/21 12:43:09;;;;;;;8.47;7.70;;;20.40;66.50;;;;;;5058063;28;20976;-77
2023/04/21 12:45:37;;;;;;;13.00;7.40;;;20.40;64.90;;;;;;5062118;28;20474;-77